Check out our new PWSWeather beta!
PWSweather.com
Personal Weather Stations
Station Observations
KNCGREEN1000
Bell Orchard Drive, Greensboro, NC 27455

Bell Orchard DriveGreensboro, NC 27455

Lat: 36.132, Lon: -79.8

Elevation: 876

Station Type: Acurite Atlas

Http://www.gilhutcheson.com

High Low Average
Temperature 62.9°F17.2°C 44.9°F7.2°C 54.5°F12.5°C
Dew Point 60.6°F15.9°C 43.9°F6.6°C 53.2°F11.8°C
Winds 13.0 mph 20.9 kmh Calm Calm 4.0 mph SSW6.4 kmh SSW
Wind Gusts -- -- --
Humidity 99% 92% 95%
Pressure 30.24 in1024.0 mb 30.00 in1015.9 mb -
Precipitation 0.30 in7.6 mm - -
Hour Temp Dew Point Humidity Winds Wind Gusts Pressure Precip Precip Rate Daily Precip Total
12:05 AM 52.1°F11.2°C 51.3°F10.7°C 97% 5.0 mph SSW8.0 kmh SSW -- 30.03 in1016.9 mb 0.00 in0.0 mm 0.00 in0.0 mm 0.00 in0.0 mm
12:08 AM 52.2°F11.2°C 51.3°F10.7°C 97% 5.0 mph S8.0 kmh S -- 30.03 in1016.9 mb 0.00 in0.0 mm 0.00 in0.0 mm 0.00 in0.0 mm
12:13 AM 52.1°F11.2°C 51.3°F10.7°C 97% 6.0 mph S9.7 kmh S -- 30.03 in1016.9 mb 0.00 in0.0 mm 0.00 in0.0 mm 0.00 in0.0 mm
12:18 AM 52.2°F11.2°C 51.3°F10.7°C 97% 2.0 mph SSE3.2 kmh SSE -- 30.03 in1016.9 mb 0.00 in0.0 mm 0.00 in0.0 mm 0.00 in0.0 mm
12:23 AM 52.3°F11.3°C 51.5°F10.8°C 97% 2.0 mph S3.2 kmh S -- 30.03 in1016.9 mb 0.00 in0.0 mm 0.00 in0.0 mm 0.00 in0.0 mm
12:28 AM 52.4°F11.3°C 51.5°F10.8°C 97% 4.0 mph SSW6.4 kmh SSW -- 30.03 in1016.9 mb 0.00 in0.0 mm 0.00 in0.0 mm 0.00 in0.0 mm
12:33 AM 52.5°F11.4°C 51.7°F10.9°C 97% 2.0 mph S3.2 kmh S -- 30.03 in1016.9 mb 0.00 in0.0 mm 0.00 in0.0 mm 0.00 in0.0 mm
12:38 AM 52.4°F11.3°C 51.5°F10.8°C 97% 3.0 mph SSW4.8 kmh SSW -- 30.03 in1016.9 mb 0.00 in0.0 mm 0.00 in0.0 mm 0.00 in0.0 mm
12:43 AM 52.5°F11.4°C 51.7°F10.9°C 97% 3.0 mph S4.8 kmh S -- 30.03 in1016.9 mb 0.00 in0.0 mm 0.00 in0.0 mm 0.00 in0.0 mm
12:48 AM 52.5°F11.4°C 51.7°F10.9°C 97% 3.0 mph SW4.8 kmh SW -- 30.03 in1016.9 mb 0.00 in0.0 mm 0.00 in0.0 mm 0.00 in0.0 mm
12:53 AM 52.6°F11.4°C 51.7°F10.9°C 97% 3.0 mph SSW4.8 kmh SSW -- 30.03 in1016.9 mb 0.00 in0.0 mm 0.00 in0.0 mm 0.00 in0.0 mm
12:58 AM 52.7°F11.5°C 51.9°F11.1°C 97% 2.0 mph S3.2 kmh S -- 30.03 in1016.9 mb 0.00 in0.0 mm 0.00 in0.0 mm 0.00 in0.0 mm
01:03 AM 52.8°F11.6°C 52.0°F11.1°C 97% 4.0 mph WSW6.4 kmh WSW -- 30.03 in1016.9 mb 0.00 in0.0 mm 0.00 in0.0 mm 0.00 in0.0 mm
01:09 AM 52.8°F11.6°C 52.3°F11.3°C 98% 4.0 mph S6.4 kmh S -- 30.02 in1016.6 mb 0.00 in0.0 mm 0.00 in0.0 mm 0.00 in0.0 mm
01:13 AM 52.9°F11.6°C 52.0°F11.1°C 97% 5.0 mph SW8.0 kmh SW -- 30.02 in1016.6 mb 0.00 in0.0 mm 0.00 in0.0 mm 0.00 in0.0 mm
01:18 AM 52.9°F11.6°C 52.3°F11.3°C 98% 5.0 mph SSW8.0 kmh SSW -- 30.02 in1016.6 mb 0.00 in0.0 mm 0.00 in0.0 mm 0.00 in0.0 mm
01:23 AM 53.1°F11.7°C 52.5°F11.4°C 98% 3.0 mph WSW4.8 kmh WSW -- 30.02 in1016.6 mb 0.00 in0.0 mm 0.00 in0.0 mm 0.00 in0.0 mm
01:28 AM 53.1°F11.7°C 52.5°F11.4°C 98% 3.0 mph SW4.8 kmh SW -- 30.02 in1016.6 mb 0.00 in0.0 mm 0.00 in0.0 mm 0.00 in0.0 mm
01:33 AM 53.1°F11.7°C 52.5°F11.4°C 98% 2.0 mph SW3.2 kmh SW -- 30.03 in1016.9 mb 0.00 in0.0 mm 0.00 in0.0 mm 0.00 in0.0 mm
01:38 AM 53.2°F11.8°C 52.7°F11.5°C 98% 2.0 mph S3.2 kmh S -- 30.03 in1016.9 mb 0.00 in0.0 mm 0.00 in0.0 mm 0.00 in0.0 mm
01:43 AM 53.2°F11.8°C 52.7°F11.5°C 98% 2.0 mph SSW3.2 kmh SSW -- 30.02 in1016.6 mb 0.00 in0.0 mm 0.00 in0.0 mm 0.00 in0.0 mm
01:48 AM 53.2°F11.8°C 52.7°F11.5°C 98% 2.0 mph S3.2 kmh S -- 30.02 in1016.6 mb 0.00 in0.0 mm 0.00 in0.0 mm 0.00 in0.0 mm
01:53 AM 53.2°F11.8°C 52.7°F11.5°C 98% 4.0 mph SW6.4 kmh SW -- 30.03 in1016.9 mb 0.00 in0.0 mm 0.00 in0.0 mm 0.00 in0.0 mm
01:58 AM 53.3°F11.8°C 52.7°F11.5°C 98% 2.0 mph S3.2 kmh S -- 30.02 in1016.6 mb 0.00 in0.0 mm 0.00 in0.0 mm 0.00 in0.0 mm
02:03 AM 53.4°F11.9°C 52.9°F11.6°C 98% 2.0 mph SSE3.2 kmh SSE -- 30.02 in1016.6 mb 0.00 in0.0 mm 0.00 in0.0 mm 0.00 in0.0 mm
02:08 AM 53.3°F11.8°C 52.7°F11.5°C 98% 3.0 mph S4.8 kmh S -- 30.02 in1016.6 mb 0.00 in0.0 mm 0.00 in0.0 mm 0.00 in0.0 mm
02:13 AM 53.5°F11.9°C 52.9°F11.6°C 98% 1.0 mph S1.6 kmh S -- 30.02 in1016.6 mb 0.00 in0.0 mm 0.00 in0.0 mm 0.00 in0.0 mm
02:18 AM 53.4°F11.9°C 52.9°F11.6°C 98% 2.0 mph SSW3.2 kmh SSW -- 30.02 in1016.6 mb 0.00 in0.0 mm 0.00 in0.0 mm 0.00 in0.0 mm
02:23 AM 53.5°F11.9°C 52.9°F11.6°C 98% 2.0 mph S3.2 kmh S -- 30.02 in1016.6 mb 0.00 in0.0 mm 0.00 in0.0 mm 0.00 in0.0 mm
02:28 AM 53.5°F11.9°C 52.9°F11.6°C 98% 3.0 mph S4.8 kmh S -- 30.01 in1016.3 mb 0.00 in0.0 mm 0.00 in0.0 mm 0.00 in0.0 mm
02:33 AM 53.5°F11.9°C 52.9°F11.6°C 98% 2.0 mph S3.2 kmh S -- 30.02 in1016.6 mb 0.00 in0.0 mm 0.00 in0.0 mm 0.00 in0.0 mm
02:38 AM 53.5°F11.9°C 52.9°F11.6°C 98% 2.0 mph SW3.2 kmh SW -- 30.01 in1016.3 mb 0.00 in0.0 mm 0.00 in0.0 mm 0.00 in0.0 mm
02:44 AM 53.5°F11.9°C 52.9°F11.6°C 98% 3.0 mph S4.8 kmh S -- 30.01 in1016.3 mb 0.00 in0.0 mm 0.00 in0.0 mm 0.00 in0.0 mm
02:48 AM 53.5°F11.9°C 52.9°F11.6°C 98% 2.0 mph S3.2 kmh S -- 30.01 in1016.3 mb 0.00 in0.0 mm 0.00 in0.0 mm 0.00 in0.0 mm
02:53 AM 53.6°F12.0°C 53.0°F11.7°C 98% 3.0 mph SW4.8 kmh SW -- 30.01 in1016.3 mb 0.00 in0.0 mm 0.00 in0.0 mm 0.00 in0.0 mm
02:58 AM 53.6°F12.0°C 53.0°F11.7°C 98% 2.0 mph S3.2 kmh S -- 30.01 in1016.3 mb 0.00 in0.0 mm 0.00 in0.0 mm 0.00 in0.0 mm
03:04 AM 53.6°F12.0°C 53.0°F11.7°C 98% 2.0 mph S3.2 kmh S -- 30.01 in1016.3 mb 0.00 in0.0 mm 0.00 in0.0 mm 0.00 in0.0 mm
03:08 AM 53.7°F12.1°C 53.2°F11.8°C 98% 2.0 mph S3.2 kmh S -- 30.01 in1016.3 mb 0.00 in0.0 mm 0.00 in0.0 mm 0.00 in0.0 mm
03:13 AM 53.8°F12.1°C 53.2°F11.8°C 98% 2.0 mph S3.2 kmh S -- 30.01 in1016.3 mb 0.00 in0.0 mm 0.00 in0.0 mm 0.00 in0.0 mm
03:18 AM 53.8°F12.1°C 53.2°F11.8°C 98% 2.0 mph S3.2 kmh S -- 30.01 in1016.3 mb 0.00 in0.0 mm 0.00 in0.0 mm 0.00 in0.0 mm
03:23 AM 53.9°F12.2°C 53.4°F11.9°C 98% 2.0 mph S3.2 kmh S -- 30.01 in1016.3 mb 0.00 in0.0 mm 0.00 in0.0 mm 0.00 in0.0 mm
03:28 AM 53.9°F12.2°C 53.4°F11.9°C 98% 2.0 mph SSW3.2 kmh SSW -- 30.01 in1016.3 mb 0.00 in0.0 mm 0.00 in0.0 mm 0.00 in0.0 mm
03:33 AM 54.1°F12.3°C 53.6°F12.0°C 98% 3.0 mph S4.8 kmh S -- 30.01 in1016.3 mb 0.00 in0.0 mm 0.00 in0.0 mm 0.00 in0.0 mm
03:38 AM 54.3°F12.4°C 53.8°F12.1°C 98% 4.0 mph S6.4 kmh S -- 30.01 in1016.3 mb 0.00 in0.0 mm 0.00 in0.0 mm 0.00 in0.0 mm
03:43 AM 54.5°F12.5°C 54.2°F12.3°C 99% 4.0 mph S6.4 kmh S -- 30.01 in1016.3 mb 0.00 in0.0 mm 0.00 in0.0 mm 0.00 in0.0 mm
03:48 AM 54.7°F12.6°C 54.4°F12.4°C 99% 3.0 mph SSE4.8 kmh SSE -- 30.01 in1016.3 mb 0.00 in0.0 mm 0.00 in0.0 mm 0.00 in0.0 mm
03:53 AM 54.8°F12.7°C 54.6°F12.6°C 99% 4.0 mph SSE6.4 kmh SSE -- 30.01 in1016.3 mb 0.00 in0.0 mm 0.00 in0.0 mm 0.00 in0.0 mm
03:58 AM 55.2°F12.9°C 54.9°F12.7°C 99% 6.0 mph S9.7 kmh S -- 30.01 in1016.3 mb 0.00 in0.0 mm 0.00 in0.0 mm 0.00 in0.0 mm
04:03 AM 55.3°F12.9°C 54.9°F12.7°C 99% 5.0 mph SSW8.0 kmh SSW -- 30.01 in1016.3 mb 0.00 in0.0 mm 0.00 in0.0 mm 0.00 in0.0 mm
04:08 AM 55.4°F13.0°C 55.1°F12.8°C 99% 4.0 mph SW6.4 kmh SW -- 30.00 in1015.9 mb 0.00 in0.0 mm 0.00 in0.0 mm 0.00 in0.0 mm
04:13 AM 55.5°F13.1°C 55.3°F12.9°C 99% 4.0 mph S6.4 kmh S -- 30.00 in1015.9 mb 0.00 in0.0 mm 0.00 in0.0 mm 0.00 in0.0 mm
04:18 AM 55.5°F13.1°C 55.3°F12.9°C 99% 4.0 mph S6.4 kmh S -- 30.00 in1015.9 mb 0.00 in0.0 mm 0.00 in0.0 mm 0.00 in0.0 mm
04:23 AM 55.6°F13.1°C 55.3°F12.9°C 99% 8.0 mph S12.9 kmh S -- 30.01 in1016.3 mb 0.00 in0.0 mm 0.00 in0.0 mm 0.00 in0.0 mm
04:28 AM 55.6°F13.1°C 55.3°F12.9°C 99% 4.0 mph SSE6.4 kmh SSE -- 30.01 in1016.3 mb 0.00 in0.0 mm 0.00 in0.0 mm 0.00 in0.0 mm
04:33 AM 55.6°F13.1°C 55.3°F12.9°C 99% 7.0 mph S11.3 kmh S -- 30.00 in1015.9 mb 0.00 in0.0 mm 0.00 in0.0 mm 0.00 in0.0 mm
04:39 AM 55.6°F13.1°C 55.3°F12.9°C 99% 3.0 mph SW4.8 kmh SW -- 30.00 in1015.9 mb 0.00 in0.0 mm 0.00 in0.0 mm 0.00 in0.0 mm
04:43 AM 55.8°F13.2°C 55.5°F13.1°C 99% 7.0 mph S11.3 kmh S -- 30.00 in1015.9 mb 0.00 in0.0 mm 0.00 in0.0 mm 0.00 in0.0 mm
04:48 AM 55.8°F13.2°C 55.5°F13.1°C 99% 4.0 mph SSW6.4 kmh SSW -- 30.00 in1015.9 mb 0.00 in0.0 mm 0.00 in0.0 mm 0.00 in0.0 mm
04:53 AM 55.8°F13.2°C 55.5°F13.1°C 99% 8.0 mph S12.9 kmh S -- 30.00 in1015.9 mb 0.00 in0.0 mm 0.00 in0.0 mm 0.00 in0.0 mm
04:58 AM 55.9°F13.3°C 55.7°F13.2°C 99% 8.0 mph S12.9 kmh S -- 30.00 in1015.9 mb 0.00 in0.0 mm 0.00 in0.0 mm 0.00 in0.0 mm
05:03 AM 55.9°F13.3°C 55.7°F13.2°C 99% 6.0 mph SSW9.7 kmh SSW -- 30.00 in1015.9 mb 0.00 in0.0 mm 0.00 in0.0 mm 0.00 in0.0 mm
05:08 AM 55.8°F13.2°C 55.2°F12.9°C 98% 8.0 mph SSW12.9 kmh SSW -- 30.00 in1015.9 mb 0.00 in0.0 mm 0.00 in0.0 mm 0.00 in0.0 mm
05:13 AM 55.9°F13.3°C 55.4°F13.0°C 98% 4.0 mph S6.4 kmh S -- 30.00 in1015.9 mb 0.00 in0.0 mm 0.00 in0.0 mm 0.00 in0.0 mm
05:18 AM 55.9°F13.3°C 55.4°F13.0°C 98% 6.0 mph S9.7 kmh S -- 30.01 in1016.3 mb 0.00 in0.0 mm 0.00 in0.0 mm 0.00 in0.0 mm
05:23 AM 56.0°F13.3°C 55.4°F13.0°C 98% 2.0 mph SSE3.2 kmh SSE -- 30.00 in1015.9 mb 0.00 in0.0 mm 0.00 in0.0 mm 0.00 in0.0 mm
05:28 AM 56.0°F13.3°C 55.1°F12.8°C 97% 4.0 mph SSW6.4 kmh SSW -- 30.01 in1016.3 mb 0.00 in0.0 mm 0.00 in0.0 mm 0.00 in0.0 mm
05:33 AM 56.1°F13.4°C 55.3°F12.9°C 97% 4.0 mph S6.4 kmh S -- 30.01 in1016.3 mb 0.00 in0.0 mm 0.00 in0.0 mm 0.00 in0.0 mm
05:38 AM 56.0°F13.3°C 55.1°F12.8°C 97% 4.0 mph S6.4 kmh S -- 30.01 in1016.3 mb 0.00 in0.0 mm 0.00 in0.0 mm 0.00 in0.0 mm
05:43 AM 56.1°F13.4°C 55.3°F12.9°C 97% 2.0 mph S3.2 kmh S -- 30.01 in1016.3 mb 0.00 in0.0 mm 0.00 in0.0 mm 0.00 in0.0 mm
05:48 AM 56.1°F13.4°C 55.3°F12.9°C 97% 5.0 mph SW8.0 kmh SW -- 30.01 in1016.3 mb 0.00 in0.0 mm 0.00 in0.0 mm 0.00 in0.0 mm
05:53 AM 56.2°F13.4°C 55.0°F12.8°C 96% 3.0 mph WSW4.8 kmh WSW -- 30.00 in1015.9 mb 0.00 in0.0 mm 0.00 in0.0 mm 0.00 in0.0 mm
05:58 AM 56.2°F13.4°C 55.0°F12.8°C 96% 5.0 mph S8.0 kmh S -- 30.00 in1015.9 mb 0.00 in0.0 mm 0.00 in0.0 mm 0.00 in0.0 mm
06:03 AM 56.2°F13.4°C 55.0°F12.8°C 96% 6.0 mph S9.7 kmh S -- 30.00 in1015.9 mb 0.00 in0.0 mm 0.00 in0.0 mm 0.00 in0.0 mm
06:08 AM 56.2°F13.4°C 54.7°F12.6°C 95% 13.0 mph S20.9 kmh S -- 30.00 in1015.9 mb 0.00 in0.0 mm 0.00 in0.0 mm 0.00 in0.0 mm
06:13 AM 56.3°F13.5°C 54.9°F12.7°C 95% 3.0 mph S4.8 kmh S -- 30.00 in1015.9 mb 0.00 in0.0 mm 0.00 in0.0 mm 0.00 in0.0 mm
06:18 AM 56.2°F13.4°C 54.7°F12.6°C 95% 6.0 mph S9.7 kmh S -- 30.01 in1016.3 mb 0.00 in0.0 mm 0.00 in0.0 mm 0.00 in0.0 mm
06:23 AM 56.3°F13.5°C 54.9°F12.7°C 95% 8.0 mph S12.9 kmh S -- 30.02 in1016.6 mb 0.00 in0.0 mm 0.00 in0.0 mm 0.00 in0.0 mm
06:28 AM 56.3°F13.5°C 54.9°F12.7°C 95% 4.0 mph S6.4 kmh S -- 30.02 in1016.6 mb 0.00 in0.0 mm 0.00 in0.0 mm 0.00 in0.0 mm
06:33 AM 56.4°F13.6°C 55.1°F12.8°C 95% 6.0 mph S9.7 kmh S -- 30.02 in1016.6 mb 0.00 in0.0 mm 0.00 in0.0 mm 0.00 in0.0 mm
06:38 AM 56.5°F13.6°C 55.1°F12.8°C 95% 5.0 mph S8.0 kmh S -- 30.02 in1016.6 mb 0.00 in0.0 mm 0.00 in0.0 mm 0.00 in0.0 mm
06:43 AM 56.5°F13.6°C 54.8°F12.7°C 94% 9.0 mph SSW14.5 kmh SSW -- 30.02 in1016.6 mb 0.00 in0.0 mm 0.00 in0.0 mm 0.00 in0.0 mm
06:48 AM 56.5°F13.6°C 54.8°F12.7°C 94% 3.0 mph SW4.8 kmh SW -- 30.02 in1016.6 mb 0.00 in0.0 mm 0.00 in0.0 mm 0.00 in0.0 mm
06:53 AM 56.7°F13.7°C 54.9°F12.7°C 94% 5.0 mph S8.0 kmh S -- 30.02 in1016.6 mb 0.00 in0.0 mm 0.00 in0.0 mm 0.00 in0.0 mm
06:58 AM 56.8°F13.8°C 55.1°F12.8°C 94% 8.0 mph SW12.9 kmh SW -- 30.02 in1016.6 mb 0.00 in0.0 mm 0.00 in0.0 mm 0.00 in0.0 mm
07:03 AM 57.0°F13.9°C 55.3°F12.9°C 94% 3.0 mph S4.8 kmh S -- 30.02 in1016.6 mb 0.00 in0.0 mm 0.00 in0.0 mm 0.00 in0.0 mm
07:08 AM 57.1°F13.9°C 55.3°F12.9°C 94% 4.0 mph SSW6.4 kmh SSW -- 30.02 in1016.6 mb 0.00 in0.0 mm 0.00 in0.0 mm 0.00 in0.0 mm
07:13 AM 57.2°F14.0°C 55.5°F13.1°C 94% 6.0 mph SSW9.7 kmh SSW -- 30.02 in1016.6 mb 0.00 in0.0 mm 0.00 in0.0 mm 0.00 in0.0 mm
07:18 AM 57.4°F14.1°C 55.7°F13.2°C 94% 5.0 mph NE8.0 kmh NE -- 30.03 in1016.9 mb 0.00 in0.0 mm 0.00 in0.0 mm 0.00 in0.0 mm
07:23 AM 57.4°F14.1°C 55.7°F13.2°C 94% 3.0 mph SSW4.8 kmh SSW -- 30.03 in1016.9 mb 0.00 in0.0 mm 0.00 in0.0 mm 0.00 in0.0 mm
07:28 AM 57.5°F14.2°C 55.8°F13.2°C 94% 3.0 mph SE4.8 kmh SE -- 30.03 in1016.9 mb 0.00 in0.0 mm 0.00 in0.0 mm 0.00 in0.0 mm
07:33 AM 57.7°F14.3°C 56.0°F13.3°C 94% 4.0 mph SW6.4 kmh SW -- 30.03 in1016.9 mb 0.00 in0.0 mm 0.00 in0.0 mm 0.00 in0.0 mm
07:38 AM 57.7°F14.3°C 56.0°F13.3°C 94% 6.0 mph S9.7 kmh S -- 30.02 in1016.6 mb 0.00 in0.0 mm 0.00 in0.0 mm 0.00 in0.0 mm
07:43 AM 57.8°F14.3°C 56.0°F13.3°C 94% 9.0 mph SSW14.5 kmh SSW -- 30.02 in1016.6 mb 0.00 in0.0 mm 0.00 in0.0 mm 0.00 in0.0 mm
07:48 AM 57.9°F14.4°C 55.9°F13.3°C 93% 4.0 mph S6.4 kmh S -- 30.02 in1016.6 mb 0.00 in0.0 mm 0.00 in0.0 mm 0.00 in0.0 mm
07:53 AM 58.0°F14.4°C 55.9°F13.3°C 93% 6.0 mph S9.7 kmh S -- 30.02 in1016.6 mb 0.00 in0.0 mm 0.00 in0.0 mm 0.00 in0.0 mm
07:58 AM 58.0°F14.4°C 55.9°F13.3°C 93% 3.0 mph S4.8 kmh S -- 30.01 in1016.3 mb 0.00 in0.0 mm 0.00 in0.0 mm 0.00 in0.0 mm
08:03 AM 58.0°F14.4°C 55.9°F13.3°C 93% 6.0 mph SSW9.7 kmh SSW -- 30.02 in1016.6 mb 0.00 in0.0 mm 0.00 in0.0 mm 0.00 in0.0 mm
08:08 AM 58.1°F14.5°C 56.1°F13.4°C 93% 9.0 mph S14.5 kmh S -- 30.02 in1016.6 mb 0.00 in0.0 mm 0.00 in0.0 mm 0.00 in0.0 mm
08:13 AM 58.2°F14.6°C 56.2°F13.4°C 93% 3.0 mph SSE4.8 kmh SSE -- 30.01 in1016.3 mb 0.00 in0.0 mm 0.00 in0.0 mm 0.00 in0.0 mm
08:18 AM 58.2°F14.6°C 56.2°F13.4°C 93% 3.0 mph S4.8 kmh S -- 30.02 in1016.6 mb 0.00 in0.0 mm 0.00 in0.0 mm 0.00 in0.0 mm
08:23 AM 58.3°F14.6°C 56.2°F13.4°C 93% 6.0 mph S9.7 kmh S -- 30.01 in1016.3 mb 0.00 in0.0 mm 0.00 in0.0 mm 0.00 in0.0 mm
08:28 AM 58.4°F14.7°C 56.4°F13.6°C 93% 4.0 mph SSE6.4 kmh SSE -- 30.01 in1016.3 mb 0.00 in0.0 mm 0.00 in0.0 mm 0.00 in0.0 mm
08:33 AM 58.4°F14.7°C 56.4°F13.6°C 93% 3.0 mph S4.8 kmh S -- 30.02 in1016.6 mb 0.00 in0.0 mm 0.00 in0.0 mm 0.00 in0.0 mm
08:38 AM 58.4°F14.7°C 56.4°F13.6°C 93% 7.0 mph S11.3 kmh S -- 30.02 in1016.6 mb 0.00 in0.0 mm 0.00 in0.0 mm 0.00 in0.0 mm
08:43 AM 58.5°F14.7°C 56.4°F13.6°C 93% 4.0 mph SSW6.4 kmh SSW -- 30.02 in1016.6 mb 0.00 in0.0 mm 0.00 in0.0 mm 0.00 in0.0 mm
08:48 AM 58.6°F14.8°C 56.6°F13.7°C 93% 3.0 mph SSW4.8 kmh SSW -- 30.02 in1016.6 mb 0.00 in0.0 mm 0.00 in0.0 mm 0.00 in0.0 mm
08:53 AM 58.7°F14.8°C 56.6°F13.7°C 93% 7.0 mph SW11.3 kmh SW -- 30.01 in1016.3 mb 0.00 in0.0 mm 0.00 in0.0 mm 0.00 in0.0 mm
08:58 AM 58.6°F14.8°C 56.6°F13.7°C 93% 7.0 mph SSE11.3 kmh SSE -- 30.02 in1016.6 mb 0.00 in0.0 mm 0.00 in0.0 mm 0.00 in0.0 mm
09:03 AM 58.7°F14.8°C 56.6°F13.7°C 93% 6.0 mph S9.7 kmh S -- 30.02 in1016.6 mb 0.00 in0.0 mm 0.00 in0.0 mm 0.00 in0.0 mm
09:08 AM 58.8°F14.9°C 57.1°F13.9°C 94% 6.0 mph S9.7 kmh S -- 30.02 in1016.6 mb 0.00 in0.0 mm 0.00 in0.0 mm 0.00 in0.0 mm
09:13 AM 58.9°F14.9°C 56.8°F13.8°C 93% 4.0 mph S6.4 kmh S -- 30.01 in1016.3 mb 0.00 in0.0 mm 0.00 in0.0 mm 0.00 in0.0 mm
09:18 AM 59.0°F15.0°C 57.0°F13.9°C 93% 4.0 mph S6.4 kmh S -- 30.02 in1016.6 mb 0.00 in0.0 mm 0.00 in0.0 mm 0.00 in0.0 mm
09:23 AM 59.1°F15.1°C 57.1°F13.9°C 93% 4.0 mph S6.4 kmh S -- 30.02 in1016.6 mb 0.00 in0.0 mm 0.00 in0.0 mm 0.00 in0.0 mm
09:28 AM 59.1°F15.1°C 57.1°F13.9°C 93% 4.0 mph S6.4 kmh S -- 30.02 in1016.6 mb 0.00 in0.0 mm 0.00 in0.0 mm 0.00 in0.0 mm
09:33 AM 59.2°F15.1°C 57.4°F14.1°C 94% 4.0 mph SE6.4 kmh SE -- 30.02 in1016.6 mb 0.00 in0.0 mm 0.00 in0.0 mm 0.00 in0.0 mm
09:38 AM 59.2°F15.1°C 57.4°F14.1°C 94% 5.0 mph SSW8.0 kmh SSW -- 30.02 in1016.6 mb 0.00 in0.0 mm 0.00 in0.0 mm 0.00 in0.0 mm
09:43 AM 59.2°F15.1°C 57.4°F14.1°C 94% 6.0 mph SSW9.7 kmh SSW -- 30.02 in1016.6 mb 0.01 in0.3 mm 0.12 in3.0 mm 0.01 in0.3 mm
09:48 AM 59.2°F15.1°C 57.7°F14.3°C 95% 6.0 mph S9.7 kmh S -- 30.02 in1016.6 mb 0.01 in0.3 mm 0.00 in0.0 mm 0.01 in0.3 mm
09:53 AM 59.3°F15.2°C 57.9°F14.4°C 95% 10.0 mph S16.1 kmh S -- 30.02 in1016.6 mb 0.01 in0.3 mm 0.00 in0.0 mm 0.01 in0.3 mm
09:58 AM 59.2°F15.1°C 57.7°F14.3°C 95% 4.0 mph S6.4 kmh S -- 30.02 in1016.6 mb 0.01 in0.3 mm 0.00 in0.0 mm 0.01 in0.3 mm
10:04 AM 59.4°F15.2°C 57.9°F14.4°C 95% 7.0 mph SSW11.3 kmh SSW -- 30.02 in1016.6 mb 0.02 in0.5 mm 0.01 in0.3 mm 0.02 in0.5 mm
10:08 AM 59.5°F15.3°C 58.1°F14.5°C 95% 3.0 mph SE4.8 kmh SE -- 30.02 in1016.6 mb 0.02 in0.5 mm 0.00 in0.0 mm 0.02 in0.5 mm
10:13 AM 59.6°F15.3°C 58.1°F14.5°C 95% 8.0 mph S12.9 kmh S -- 30.02 in1016.6 mb 0.02 in0.5 mm 0.00 in0.0 mm 0.02 in0.5 mm
10:18 AM 59.7°F15.4°C 58.3°F14.6°C 95% 7.0 mph SSW11.3 kmh SSW -- 30.02 in1016.6 mb 0.02 in0.5 mm 0.00 in0.0 mm 0.02 in0.5 mm
10:23 AM 59.9°F15.5°C 58.5°F14.7°C 95% 7.0 mph SSW11.3 kmh SSW -- 30.02 in1016.6 mb 0.02 in0.5 mm 0.00 in0.0 mm 0.02 in0.5 mm
10:28 AM 60.1°F15.6°C 58.6°F14.8°C 95% 7.0 mph S11.3 kmh S -- 30.02 in1016.6 mb 0.02 in0.5 mm 0.00 in0.0 mm 0.02 in0.5 mm
10:33 AM 60.3°F15.7°C 58.8°F14.9°C 95% 9.0 mph S14.5 kmh S -- 30.02 in1016.6 mb 0.02 in0.5 mm 0.00 in0.0 mm 0.02 in0.5 mm
10:38 AM 60.5°F15.8°C 59.0°F15.0°C 95% 7.0 mph S11.3 kmh S -- 30.02 in1016.6 mb 0.01 in0.3 mm 0.00 in0.0 mm 0.02 in0.5 mm
10:43 AM 60.8°F16.0°C 59.0°F15.0°C 94% 5.0 mph NW8.0 kmh NW -- 30.02 in1016.6 mb 0.01 in0.3 mm 0.00 in0.0 mm 0.02 in0.5 mm
10:48 AM 60.9°F16.1°C 59.2°F15.1°C 94% 10.0 mph SSW16.1 kmh SSW -- 30.02 in1016.6 mb 0.01 in0.3 mm 0.00 in0.0 mm 0.02 in0.5 mm
10:53 AM 61.1°F16.2°C 59.4°F15.2°C 94% 3.0 mph WSW4.8 kmh WSW -- 30.02 in1016.6 mb 0.01 in0.3 mm 0.00 in0.0 mm 0.02 in0.5 mm
10:58 AM 61.3°F16.3°C 59.6°F15.3°C 94% 9.0 mph S14.5 kmh S -- 30.02 in1016.6 mb 0.00 in0.0 mm 0.00 in0.0 mm 0.02 in0.5 mm
11:03 AM 61.5°F16.4°C 59.5°F15.3°C 93% 6.0 mph S9.7 kmh S -- 30.02 in1016.6 mb 0.00 in0.0 mm 0.00 in0.0 mm 0.02 in0.5 mm
11:08 AM 61.7°F16.5°C 59.6°F15.3°C 93% 9.0 mph SSW14.5 kmh SSW -- 30.01 in1016.3 mb 0.00 in0.0 mm 0.00 in0.0 mm 0.02 in0.5 mm
11:13 AM 61.9°F16.6°C 59.8°F15.4°C 93% 8.0 mph SW12.9 kmh SW -- 30.01 in1016.3 mb 0.00 in0.0 mm 0.00 in0.0 mm 0.02 in0.5 mm
11:18 AM 62.1°F16.7°C 60.0°F15.6°C 93% 6.0 mph SW9.7 kmh SW -- 30.01 in1016.3 mb 0.00 in0.0 mm 0.00 in0.0 mm 0.02 in0.5 mm
11:23 AM 62.4°F16.9°C 60.4°F15.8°C 93% 6.0 mph SSW9.7 kmh SSW -- 30.01 in1016.3 mb 0.00 in0.0 mm 0.00 in0.0 mm 0.02 in0.5 mm
11:28 AM 62.6°F17.0°C 60.5°F15.8°C 93% 3.0 mph SSW4.8 kmh SSW -- 30.01 in1016.3 mb 0.00 in0.0 mm 0.00 in0.0 mm 0.02 in0.5 mm
11:33 AM 62.5°F16.9°C 60.0°F15.6°C 92% 9.0 mph S14.5 kmh S -- 30.01 in1016.3 mb 0.00 in0.0 mm 0.00 in0.0 mm 0.02 in0.5 mm
11:38 AM 62.7°F17.1°C 60.4°F15.8°C 92% 6.0 mph E9.7 kmh E -- 30.01 in1016.3 mb 0.00 in0.0 mm 0.00 in0.0 mm 0.02 in0.5 mm
11:43 AM 62.7°F17.1°C 60.4°F15.8°C 92% 7.0 mph SW11.3 kmh SW -- 30.00 in1015.9 mb 0.00 in0.0 mm 0.00 in0.0 mm 0.02 in0.5 mm
11:48 AM 62.8°F17.1°C 60.4°F15.8°C 92% 10.0 mph WSW16.1 kmh WSW -- 30.00 in1015.9 mb 0.00 in0.0 mm 0.00 in0.0 mm 0.02 in0.5 mm
11:53 AM 62.9°F17.2°C 60.6°F15.9°C 92% 8.0 mph S12.9 kmh S -- 30.00 in1015.9 mb 0.00 in0.0 mm 0.00 in0.0 mm 0.02 in0.5 mm
11:58 AM 62.8°F17.1°C 60.4°F15.8°C 92% 5.0 mph NW8.0 kmh NW -- 30.00 in1015.9 mb 0.00 in0.0 mm 0.00 in0.0 mm 0.02 in0.5 mm
12:03 PM 62.9°F17.2°C 60.6°F15.9°C 92% 8.0 mph 12.9 kmh -- 30.01 in1016.3 mb 0.00 in0.0 mm 0.00 in0.0 mm 0.02 in0.5 mm
12:08 PM 62.5°F16.9°C 60.4°F15.8°C 93% 5.0 mph NW8.0 kmh NW -- 30.02 in1016.6 mb 0.00 in0.0 mm 0.00 in0.0 mm 0.02 in0.5 mm
12:13 PM 62.2°F16.8°C 60.5°F15.8°C 94% 4.0 mph SSW6.4 kmh SSW -- 30.02 in1016.6 mb 0.01 in0.3 mm 0.12 in3.0 mm 0.03 in0.8 mm
12:18 PM 61.5°F16.4°C 59.8°F15.4°C 94% 5.0 mph NW8.0 kmh NW -- 30.02 in1016.6 mb 0.02 in0.5 mm 0.12 in3.0 mm 0.04 in1.0 mm
12:23 PM 61.0°F16.1°C 59.2°F15.1°C 94% 4.0 mph N6.4 kmh N -- 30.02 in1016.6 mb 0.02 in0.5 mm 0.00 in0.0 mm 0.04 in1.0 mm
12:28 PM 60.6°F15.9°C 58.9°F14.9°C 94% 7.0 mph N11.3 kmh N -- 30.02 in1016.6 mb 0.02 in0.5 mm 0.00 in0.0 mm 0.04 in1.0 mm
12:33 PM 60.1°F15.6°C 58.3°F14.6°C 94% 6.0 mph NE9.7 kmh NE -- 30.01 in1016.3 mb 0.02 in0.5 mm 0.00 in0.0 mm 0.04 in1.0 mm
12:38 PM 59.7°F15.4°C 58.0°F14.4°C 94% 5.0 mph S8.0 kmh S -- 30.02 in1016.6 mb 0.02 in0.5 mm 0.00 in0.0 mm 0.04 in1.0 mm
12:43 PM 59.5°F15.3°C 57.8°F14.3°C 94% 7.0 mph NW11.3 kmh NW -- 30.02 in1016.6 mb 0.02 in0.5 mm 0.00 in0.0 mm 0.04 in1.0 mm
12:48 PM 59.2°F15.1°C 57.4°F14.1°C 94% 1.0 mph SW1.6 kmh SW -- 30.02 in1016.6 mb 0.02 in0.5 mm 0.00 in0.0 mm 0.04 in1.0 mm
12:53 PM 58.9°F14.9°C 57.1°F13.9°C 94% 2.0 mph SE3.2 kmh SE -- 30.02 in1016.6 mb 0.02 in0.5 mm 0.00 in0.0 mm 0.04 in1.0 mm
12:58 PM 58.6°F14.8°C 56.9°F13.8°C 94% 6.0 mph WSW9.7 kmh WSW -- 30.02 in1016.6 mb 0.02 in0.5 mm 0.00 in0.0 mm 0.04 in1.0 mm
01:03 PM 58.7°F14.8°C 57.2°F14.0°C 95% 7.0 mph NW11.3 kmh NW -- 30.01 in1016.3 mb 0.02 in0.5 mm 0.00 in0.0 mm 0.04 in1.0 mm
01:08 PM 58.5°F14.7°C 57.0°F13.9°C 95% 2.0 mph SSW3.2 kmh SSW -- 30.01 in1016.3 mb 0.00 in0.0 mm 0.00 in0.0 mm 0.04 in1.0 mm
01:13 PM 58.3°F14.6°C 56.8°F13.8°C 95% 3.0 mph NW4.8 kmh NW -- 30.01 in1016.3 mb 0.00 in0.0 mm 0.00 in0.0 mm 0.04 in1.0 mm
01:18 PM 58.3°F14.6°C 56.8°F13.8°C 95% 2.0 mph WSW3.2 kmh WSW -- 30.01 in1016.3 mb 0.00 in0.0 mm 0.00 in0.0 mm 0.04 in1.0 mm
01:23 PM 58.2°F14.6°C 56.8°F13.8°C 95% 2.0 mph S3.2 kmh S -- 30.01 in1016.3 mb 0.00 in0.0 mm 0.00 in0.0 mm 0.04 in1.0 mm
01:28 PM 58.1°F14.5°C 56.7°F13.7°C 95% Calm Calm -- 30.01 in1016.3 mb 0.00 in0.0 mm 0.00 in0.0 mm 0.04 in1.0 mm
01:33 PM 58.0°F14.4°C 56.8°F13.8°C 96% 3.0 mph W4.8 kmh W -- 30.01 in1016.3 mb 0.01 in0.3 mm 0.12 in3.0 mm 0.05 in1.3 mm
01:38 PM 58.0°F14.4°C 56.8°F13.8°C 96% 1.0 mph S1.6 kmh S -- 30.01 in1016.3 mb 0.01 in0.3 mm 0.00 in0.0 mm 0.05 in1.3 mm
01:43 PM 57.9°F14.4°C 56.8°F13.8°C 96% 3.0 mph NNE4.8 kmh NNE -- 30.01 in1016.3 mb 0.01 in0.3 mm 0.00 in0.0 mm 0.05 in1.3 mm
01:48 PM 57.9°F14.4°C 56.8°F13.8°C 96% 6.0 mph WNW9.7 kmh WNW -- 30.01 in1016.3 mb 0.02 in0.5 mm 0.12 in3.0 mm 0.06 in1.5 mm
01:53 PM 57.9°F14.4°C 56.8°F13.8°C 96% 2.0 mph NE3.2 kmh NE -- 30.01 in1016.3 mb 0.02 in0.5 mm 0.00 in0.0 mm 0.06 in1.5 mm
01:58 PM 57.7°F14.3°C 56.6°F13.7°C 96% 4.0 mph W6.4 kmh W -- 30.01 in1016.3 mb 0.02 in0.5 mm 0.00 in0.0 mm 0.06 in1.5 mm
02:03 PM 57.6°F14.2°C 56.4°F13.6°C 96% 2.0 mph WSW3.2 kmh WSW -- 30.01 in1016.3 mb 0.02 in0.5 mm 0.00 in0.0 mm 0.06 in1.5 mm
02:08 PM 57.6°F14.2°C 56.4°F13.6°C 96% 4.0 mph NNW6.4 kmh NNW -- 30.01 in1016.3 mb 0.03 in0.8 mm 0.12 in3.0 mm 0.07 in1.8 mm
02:13 PM 57.5°F14.2°C 56.4°F13.6°C 96% 3.0 mph WNW4.8 kmh WNW -- 30.01 in1016.3 mb 0.03 in0.8 mm 0.00 in0.0 mm 0.07 in1.8 mm
02:18 PM 57.3°F14.1°C 56.2°F13.4°C 96% 2.0 mph NW3.2 kmh NW -- 30.01 in1016.3 mb 0.03 in0.8 mm 0.00 in0.0 mm 0.07 in1.8 mm
02:23 PM 57.2°F14.0°C 56.1°F13.4°C 96% 3.0 mph WNW4.8 kmh WNW -- 30.01 in1016.3 mb 0.04 in1.0 mm 0.12 in3.0 mm 0.08 in2.0 mm
02:28 PM 57.3°F14.1°C 56.2°F13.4°C 96% 5.0 mph NW8.0 kmh NW -- 30.01 in1016.3 mb 0.05 in1.3 mm 0.12 in3.0 mm 0.10 in2.5 mm
02:33 PM 57.2°F14.0°C 56.1°F13.4°C 96% 2.0 mph WSW3.2 kmh WSW -- 30.01 in1016.3 mb 0.06 in1.5 mm 0.12 in3.0 mm 0.11 in2.8 mm
02:38 PM 57.2°F14.0°C 56.1°F13.4°C 96% 2.0 mph SSW3.2 kmh SSW -- 30.01 in1016.3 mb 0.05 in1.3 mm 0.00 in0.0 mm 0.11 in2.8 mm
02:43 PM 57.2°F14.0°C 56.1°F13.4°C 96% 3.0 mph WSW4.8 kmh WSW -- 30.01 in1016.3 mb 0.06 in1.5 mm 0.12 in3.0 mm 0.12 in3.0 mm
02:48 PM 57.2°F14.0°C 56.1°F13.4°C 96% 3.0 mph SSW4.8 kmh SSW -- 30.02 in1016.6 mb 0.06 in1.5 mm 0.00 in0.0 mm 0.12 in3.0 mm
02:53 PM 57.2°F14.0°C 56.1°F13.4°C 96% Calm Calm -- 30.02 in1016.6 mb 0.07 in1.8 mm 0.12 in3.0 mm 0.13 in3.3 mm
02:58 PM 57.2°F14.0°C 56.1°F13.4°C 96% 2.0 mph W3.2 kmh W -- 30.02 in1016.6 mb 0.06 in1.5 mm 0.00 in0.0 mm 0.13 in3.3 mm
03:03 PM 57.2°F14.0°C 56.1°F13.4°C 96% 2.0 mph NNW3.2 kmh NNW -- 30.02 in1016.6 mb 0.06 in1.5 mm 0.00 in0.0 mm 0.13 in3.3 mm
03:08 PM 57.2°F14.0°C 56.1°F13.4°C 96% 3.0 mph WNW4.8 kmh WNW -- 30.02 in1016.6 mb 0.06 in1.5 mm 0.00 in0.0 mm 0.13 in3.3 mm
03:13 PM 57.2°F14.0°C 56.1°F13.4°C 96% 3.0 mph SE4.8 kmh SE -- 30.02 in1016.6 mb 0.06 in1.5 mm 0.00 in0.0 mm 0.13 in3.3 mm
03:18 PM 57.2°F14.0°C 56.1°F13.4°C 96% 4.0 mph NNW6.4 kmh NNW -- 30.02 in1016.6 mb 0.03 in0.8 mm 0.00 in0.0 mm 0.13 in3.3 mm
03:23 PM 57.0°F13.9°C 55.9°F13.3°C 96% 3.0 mph WSW4.8 kmh WSW -- 30.02 in1016.6 mb 0.03 in0.8 mm 0.00 in0.0 mm 0.13 in3.3 mm
03:28 PM 56.9°F13.8°C 55.7°F13.2°C 96% 2.0 mph NW3.2 kmh NW -- 30.02 in1016.6 mb 0.02 in0.5 mm 0.00 in0.0 mm 0.13 in3.3 mm
03:33 PM 56.8°F13.8°C 55.7°F13.2°C 96% 4.0 mph N6.4 kmh N -- 30.03 in1016.9 mb 0.02 in0.5 mm 0.00 in0.0 mm 0.13 in3.3 mm
03:38 PM 56.8°F13.8°C 55.7°F13.2°C 96% 6.0 mph W9.7 kmh W -- 30.03 in1016.9 mb 0.01 in0.3 mm 0.00 in0.0 mm 0.13 in3.3 mm
03:43 PM 56.7°F13.7°C 55.5°F13.1°C 96% 2.0 mph SE3.2 kmh SE -- 30.03 in1016.9 mb 0.01 in0.3 mm 0.00 in0.0 mm 0.13 in3.3 mm
03:48 PM 56.4°F13.6°C 55.3°F12.9°C 96% 6.0 mph N9.7 kmh N -- 30.03 in1016.9 mb 0.00 in0.0 mm 0.00 in0.0 mm 0.13 in3.3 mm
03:53 PM 56.4°F13.6°C 55.3°F12.9°C 96% 1.0 mph W1.6 kmh W -- 30.03 in1016.9 mb 0.00 in0.0 mm 0.00 in0.0 mm 0.13 in3.3 mm
03:58 PM 56.2°F13.4°C 55.0°F12.8°C 96% 2.0 mph WNW3.2 kmh WNW -- 30.03 in1016.9 mb 0.00 in0.0 mm 0.00 in0.0 mm 0.13 in3.3 mm
04:03 PM 56.2°F13.4°C 55.0°F12.8°C 96% 4.0 mph NW6.4 kmh NW -- 30.04 in1017.3 mb 0.00 in0.0 mm 0.00 in0.0 mm 0.13 in3.3 mm
04:08 PM 56.1°F13.4°C 54.7°F12.6°C 95% 4.0 mph NW6.4 kmh NW -- 30.04 in1017.3 mb 0.00 in0.0 mm 0.00 in0.0 mm 0.13 in3.3 mm
04:13 PM 55.9°F13.3°C 54.5°F12.5°C 95% 3.0 mph NNW4.8 kmh NNW -- 30.05 in1017.6 mb 0.00 in0.0 mm 0.00 in0.0 mm 0.13 in3.3 mm
04:18 PM 55.8°F13.2°C 54.3°F12.4°C 95% 8.0 mph NNW12.9 kmh NNW -- 30.05 in1017.6 mb 0.00 in0.0 mm 0.00 in0.0 mm 0.13 in3.3 mm
04:23 PM 55.6°F13.1°C 54.2°F12.3°C 95% 6.0 mph NNE9.7 kmh NNE -- 30.05 in1017.6 mb 0.00 in0.0 mm 0.00 in0.0 mm 0.13 in3.3 mm
04:28 PM 55.6°F13.1°C 54.2°F12.3°C 95% 10.0 mph NNW16.1 kmh NNW -- 30.06 in1017.9 mb 0.01 in0.3 mm 0.12 in3.0 mm 0.14 in3.6 mm
04:33 PM 55.4°F13.0°C 54.0°F12.2°C 95% 2.0 mph NE3.2 kmh NE -- 30.07 in1018.3 mb 0.01 in0.3 mm 0.00 in0.0 mm 0.14 in3.6 mm
04:38 PM 55.3°F12.9°C 53.8°F12.1°C 95% 4.0 mph NNE6.4 kmh NNE -- 30.07 in1018.3 mb 0.01 in0.3 mm 0.00 in0.0 mm 0.14 in3.6 mm
04:43 PM 55.2°F12.9°C 53.8°F12.1°C 95% 8.0 mph NNW12.9 kmh NNW -- 30.06 in1017.9 mb 0.01 in0.3 mm 0.00 in0.0 mm 0.14 in3.6 mm
04:48 PM 54.9°F12.7°C 53.4°F11.9°C 95% 7.0 mph WNW11.3 kmh WNW -- 30.06 in1017.9 mb 0.01 in0.3 mm 0.00 in0.0 mm 0.14 in3.6 mm
04:53 PM 54.7°F12.6°C 53.3°F11.8°C 95% 10.0 mph NE16.1 kmh NE -- 30.07 in1018.3 mb 0.02 in0.5 mm 0.12 in3.0 mm 0.15 in3.8 mm
04:58 PM 54.5°F12.5°C 53.1°F11.7°C 95% 4.0 mph NW6.4 kmh NW -- 30.08 in1018.6 mb 0.02 in0.5 mm 0.00 in0.0 mm 0.15 in3.8 mm
05:03 PM 54.3°F12.4°C 52.6°F11.4°C 94% 8.0 mph W12.9 kmh W -- 30.09 in1019.0 mb 0.04 in1.0 mm 0.02 in0.5 mm 0.17 in4.3 mm
05:08 PM 54.2°F12.3°C 52.7°F11.5°C 95% 6.0 mph NE9.7 kmh NE -- 30.09 in1019.0 mb 0.05 in1.3 mm 0.12 in3.0 mm 0.18 in4.6 mm
05:13 PM 53.5°F11.9°C 51.4°F10.8°C 93% 6.0 mph NNW9.7 kmh NNW -- 30.10 in1019.3 mb 0.06 in1.5 mm 0.12 in3.0 mm 0.19 in4.8 mm
05:18 PM 53.1°F11.7°C 51.1°F10.6°C 93% 11.0 mph NNE17.7 kmh NNE -- 30.09 in1019.0 mb 0.07 in1.8 mm 0.12 in3.0 mm 0.20 in5.1 mm
05:23 PM 52.7°F11.5°C 50.7°F10.4°C 93% 13.0 mph N20.9 kmh N -- 30.10 in1019.3 mb 0.07 in1.8 mm 0.00 in0.0 mm 0.20 in5.1 mm
05:28 PM 52.2°F11.2°C 50.5°F10.3°C 94% 8.0 mph N12.9 kmh N -- 30.11 in1019.6 mb 0.07 in1.8 mm 0.00 in0.0 mm 0.21 in5.3 mm
05:33 PM 52.1°F11.2°C 50.5°F10.3°C 94% 3.0 mph NNE4.8 kmh NNE -- 30.10 in1019.3 mb 0.08 in2.0 mm 0.12 in3.0 mm 0.22 in5.6 mm
05:38 PM 51.9°F11.1°C 50.6°F10.3°C 95% 3.0 mph N4.8 kmh N -- 30.10 in1019.3 mb 0.08 in2.0 mm 0.00 in0.0 mm 0.22 in5.6 mm
05:43 PM 51.9°F11.1°C 50.6°F10.3°C 95% 3.0 mph NE4.8 kmh NE -- 30.11 in1019.6 mb 0.08 in2.0 mm 0.00 in0.0 mm 0.22 in5.6 mm
05:48 PM 51.8°F11.0°C 50.4°F10.2°C 95% 5.0 mph NNE8.0 kmh NNE -- 30.12 in1020.0 mb 0.07 in1.8 mm 0.00 in0.0 mm 0.22 in5.6 mm
05:53 PM 51.5°F10.8°C 50.3°F10.2°C 96% 4.0 mph NE6.4 kmh NE -- 30.12 in1020.0 mb 0.08 in2.0 mm 0.12 in3.0 mm 0.23 in5.8 mm
05:58 PM 51.4°F10.8°C 50.0°F10.0°C 95% 3.0 mph NNW4.8 kmh NNW -- 30.12 in1020.0 mb 0.05 in1.3 mm 0.00 in0.0 mm 0.23 in5.8 mm
06:03 PM 51.3°F10.7°C 49.9°F9.9°C 95% 3.0 mph NE4.8 kmh NE -- 30.12 in1020.0 mb 0.05 in1.3 mm 0.00 in0.0 mm 0.23 in5.8 mm
06:08 PM 51.3°F10.7°C 49.9°F9.9°C 95% 3.0 mph W4.8 kmh W -- 30.13 in1020.3 mb 0.04 in1.0 mm 0.00 in0.0 mm 0.23 in5.8 mm
06:13 PM 51.2°F10.7°C 49.9°F9.9°C 95% 3.0 mph NW4.8 kmh NW -- 30.14 in1020.7 mb 0.04 in1.0 mm 0.00 in0.0 mm 0.23 in5.8 mm
06:18 PM 51.1°F10.6°C 50.0°F10.0°C 96% 3.0 mph NE4.8 kmh NE -- 30.14 in1020.7 mb 0.02 in0.5 mm 0.00 in0.0 mm 0.23 in5.8 mm
06:23 PM 51.1°F10.6°C 50.0°F10.0°C 96% 4.0 mph NNE6.4 kmh NNE -- 30.14 in1020.7 mb 0.02 in0.5 mm 0.00 in0.0 mm 0.23 in5.8 mm
06:28 PM 51.0°F10.6°C 49.7°F9.8°C 95% 4.0 mph NNE6.4 kmh NNE -- 30.13 in1020.3 mb 0.01 in0.3 mm 0.00 in0.0 mm 0.23 in5.8 mm
06:33 PM 51.1°F10.6°C 49.7°F9.8°C 95% 4.0 mph N6.4 kmh N -- 30.14 in1020.7 mb 0.01 in0.3 mm 0.00 in0.0 mm 0.23 in5.8 mm
06:39 PM 50.9°F10.5°C 48.9°F9.4°C 93% 5.0 mph NNW8.0 kmh NNW -- 30.13 in1020.3 mb 0.01 in0.3 mm 0.00 in0.0 mm 0.23 in5.8 mm
06:43 PM 50.9°F10.5°C 49.2°F9.6°C 94% 4.0 mph NW6.4 kmh NW -- 30.13 in1020.3 mb 0.01 in0.3 mm 0.00 in0.0 mm 0.23 in5.8 mm
06:48 PM 50.8°F10.4°C 49.0°F9.4°C 94% 3.0 mph NNE4.8 kmh NNE -- 30.15 in1021.0 mb 0.00 in0.0 mm 0.00 in0.0 mm 0.23 in5.8 mm
06:53 PM 50.8°F10.4°C 49.0°F9.4°C 94% 3.0 mph NE4.8 kmh NE -- 30.15 in1021.0 mb 0.00 in0.0 mm 0.00 in0.0 mm 0.23 in5.8 mm
06:58 PM 50.8°F10.4°C 49.0°F9.4°C 94% 2.0 mph NE3.2 kmh NE -- 30.15 in1021.0 mb 0.00 in0.0 mm 0.00 in0.0 mm 0.23 in5.8 mm
07:03 PM 50.7°F10.4°C 49.0°F9.4°C 94% 2.0 mph NE3.2 kmh NE -- 30.15 in1021.0 mb 0.00 in0.0 mm 0.00 in0.0 mm 0.23 in5.8 mm
07:08 PM 50.7°F10.4°C 49.0°F9.4°C 94% 3.0 mph NNW4.8 kmh NNW -- 30.15 in1021.0 mb 0.00 in0.0 mm 0.00 in0.0 mm 0.23 in5.8 mm
07:13 PM 50.5°F10.3°C 49.1°F9.5°C 95% 3.0 mph NNW4.8 kmh NNW -- 30.15 in1021.0 mb 0.00 in0.0 mm 0.00 in0.0 mm 0.23 in5.8 mm
07:18 PM 50.5°F10.3°C 49.1°F9.5°C 95% 3.0 mph N4.8 kmh N -- 30.15 in1021.0 mb 0.00 in0.0 mm 0.00 in0.0 mm 0.23 in5.8 mm
07:23 PM 50.4°F10.2°C 49.0°F9.4°C 95% 3.0 mph NW4.8 kmh NW -- 30.15 in1021.0 mb 0.00 in0.0 mm 0.00 in0.0 mm 0.23 in5.8 mm
07:28 PM 50.3°F10.2°C 49.0°F9.4°C 95% 4.0 mph N6.4 kmh N -- 30.15 in1021.0 mb 0.00 in0.0 mm 0.00 in0.0 mm 0.23 in5.8 mm
07:33 PM 50.3°F10.2°C 49.0°F9.4°C 95% 2.0 mph N3.2 kmh N -- 30.16 in1021.3 mb 0.00 in0.0 mm 0.00 in0.0 mm 0.23 in5.8 mm
07:38 PM 50.2°F10.1°C 48.8°F9.3°C 95% 2.0 mph N3.2 kmh N -- 30.16 in1021.3 mb 0.00 in0.0 mm 0.00 in0.0 mm 0.23 in5.8 mm
07:43 PM 50.1°F10.1°C 48.5°F9.2°C 94% 2.0 mph NE3.2 kmh NE -- 30.16 in1021.3 mb 0.00 in0.0 mm 0.00 in0.0 mm 0.23 in5.8 mm
07:49 PM 50.1°F10.1°C 48.5°F9.2°C 94% 2.0 mph W3.2 kmh W -- 30.16 in1021.3 mb 0.00 in0.0 mm 0.00 in0.0 mm 0.23 in5.8 mm
07:53 PM 50.0°F10.0°C 48.3°F9.1°C 94% 2.0 mph WSW3.2 kmh WSW -- 30.18 in1022.0 mb 0.00 in0.0 mm 0.00 in0.0 mm 0.23 in5.8 mm
07:58 PM 49.9°F9.9°C 48.1°F8.9°C 94% 3.0 mph N4.8 kmh N -- 30.18 in1022.0 mb 0.00 in0.0 mm 0.00 in0.0 mm 0.23 in5.8 mm
08:03 PM 49.7°F9.8°C 48.0°F8.9°C 94% 2.0 mph NNW3.2 kmh NNW -- 30.18 in1022.0 mb 0.00 in0.0 mm 0.00 in0.0 mm 0.23 in5.8 mm
08:08 PM 49.5°F9.7°C 47.8°F8.8°C 94% 3.0 mph N4.8 kmh N -- 30.16 in1021.3 mb 0.00 in0.0 mm 0.00 in0.0 mm 0.23 in5.8 mm
08:13 PM 49.2°F9.6°C 47.6°F8.7°C 94% 3.0 mph W4.8 kmh W -- 30.17 in1021.7 mb 0.00 in0.0 mm 0.00 in0.0 mm 0.23 in5.8 mm
08:18 PM 49.2°F9.6°C 47.6°F8.7°C 94% 3.0 mph N4.8 kmh N -- 30.17 in1021.7 mb 0.00 in0.0 mm 0.00 in0.0 mm 0.23 in5.8 mm
08:23 PM 48.8°F9.3°C 46.8°F8.2°C 93% 5.0 mph NW8.0 kmh NW -- 30.17 in1021.7 mb 0.00 in0.0 mm 0.00 in0.0 mm 0.23 in5.8 mm
08:28 PM 48.7°F9.3°C 46.8°F8.2°C 93% 3.0 mph WNW4.8 kmh WNW -- 30.18 in1022.0 mb 0.00 in0.0 mm 0.00 in0.0 mm 0.23 in5.8 mm
08:33 PM 48.3°F9.1°C 46.1°F7.8°C 92% 4.0 mph NNW6.4 kmh NNW -- 30.18 in1022.0 mb 0.00 in0.0 mm 0.00 in0.0 mm 0.23 in5.8 mm
08:38 PM 48.2°F9.0°C 46.0°F7.8°C 92% 7.0 mph N11.3 kmh N -- 30.18 in1022.0 mb 0.00 in0.0 mm 0.00 in0.0 mm 0.23 in5.8 mm
08:43 PM 48.0°F8.9°C 45.8°F7.7°C 92% 7.0 mph NW11.3 kmh NW -- 30.18 in1022.0 mb 0.01 in0.3 mm 0.12 in3.0 mm 0.24 in6.1 mm
08:48 PM 47.8°F8.8°C 45.9°F7.7°C 93% 1.0 mph E1.6 kmh E -- 30.18 in1022.0 mb 0.01 in0.3 mm 0.00 in0.0 mm 0.24 in6.1 mm
08:53 PM 47.5°F8.6°C 45.5°F7.5°C 93% 5.0 mph NW8.0 kmh NW -- 30.18 in1022.0 mb 0.01 in0.3 mm 0.00 in0.0 mm 0.24 in6.1 mm
08:58 PM 47.4°F8.6°C 45.8°F7.7°C 94% 6.0 mph NNW9.7 kmh NNW -- 30.19 in1022.4 mb 0.01 in0.3 mm 0.00 in0.0 mm 0.24 in6.1 mm
09:03 PM 47.4°F8.6°C 45.8°F7.7°C 94% 2.0 mph W3.2 kmh W -- 30.20 in1022.7 mb 0.01 in0.3 mm 0.00 in0.0 mm 0.24 in6.1 mm
09:08 PM 47.3°F8.5°C 45.6°F7.6°C 94% 3.0 mph NNW4.8 kmh NNW -- 30.20 in1022.7 mb 0.01 in0.3 mm 0.00 in0.0 mm 0.24 in6.1 mm
09:13 PM 47.3°F8.5°C 45.9°F7.7°C 95% 2.0 mph NE3.2 kmh NE -- 30.20 in1022.7 mb 0.01 in0.3 mm 0.00 in0.0 mm 0.24 in6.1 mm
09:18 PM 47.2°F8.4°C 45.7°F7.6°C 95% 3.0 mph NNW4.8 kmh NNW -- 30.21 in1023.0 mb 0.02 in0.5 mm 0.12 in3.0 mm 0.25 in6.4 mm
09:23 PM 47.0°F8.3°C 45.6°F7.6°C 95% 1.0 mph SW1.6 kmh SW -- 30.21 in1023.0 mb 0.02 in0.5 mm 0.00 in0.0 mm 0.25 in6.4 mm
09:28 PM 47.1°F8.4°C 46.0°F7.8°C 96% 3.0 mph N4.8 kmh N -- 30.21 in1023.0 mb 0.03 in0.8 mm 0.12 in3.0 mm 0.26 in6.6 mm
09:33 PM 46.8°F8.2°C 45.7°F7.6°C 96% 2.0 mph S3.2 kmh S -- 30.21 in1023.0 mb 0.04 in1.0 mm 0.12 in3.0 mm 0.27 in6.9 mm
09:38 PM 46.7°F8.2°C 45.7°F7.6°C 96% 2.0 mph NE3.2 kmh NE -- 30.21 in1023.0 mb 0.03 in0.8 mm 0.00 in0.0 mm 0.27 in6.9 mm
09:43 PM 46.6°F8.1°C 45.5°F7.5°C 96% 2.0 mph ENE3.2 kmh ENE -- 30.21 in1023.0 mb 0.04 in1.0 mm 0.12 in3.0 mm 0.28 in7.1 mm
09:48 PM 46.6°F8.1°C 45.5°F7.5°C 96% 3.0 mph NW4.8 kmh NW -- 30.21 in1023.0 mb 0.04 in1.0 mm 0.00 in0.0 mm 0.28 in7.1 mm
09:53 PM 46.5°F8.1°C 45.5°F7.5°C 96% 3.0 mph NNE4.8 kmh NNE -- 30.21 in1023.0 mb 0.04 in1.0 mm 0.00 in0.0 mm 0.28 in7.1 mm
09:58 PM 46.3°F7.9°C 45.1°F7.3°C 96% 3.0 mph NNW4.8 kmh NNW -- 30.20 in1022.7 mb 0.04 in1.0 mm 0.00 in0.0 mm 0.28 in7.1 mm
10:03 PM 46.5°F8.1°C 45.5°F7.5°C 96% 2.0 mph N3.2 kmh N -- 30.20 in1022.7 mb 0.04 in1.0 mm 0.00 in0.0 mm 0.28 in7.1 mm
10:08 PM 46.4°F8.0°C 45.3°F7.4°C 96% 2.0 mph WSW3.2 kmh WSW -- 30.20 in1022.7 mb 0.03 in0.8 mm 0.00 in0.0 mm 0.28 in7.1 mm
10:13 PM 46.3°F7.9°C 45.1°F7.3°C 96% 2.0 mph NNE3.2 kmh NNE -- 30.20 in1022.7 mb 0.03 in0.8 mm 0.00 in0.0 mm 0.28 in7.1 mm
10:18 PM 46.4°F8.0°C 45.3°F7.4°C 96% 2.0 mph NE3.2 kmh NE -- 30.20 in1022.7 mb 0.02 in0.5 mm 0.00 in0.0 mm 0.28 in7.1 mm
10:23 PM 46.4°F8.0°C 45.3°F7.4°C 96% 2.0 mph ESE3.2 kmh ESE -- 30.20 in1022.7 mb 0.02 in0.5 mm 0.00 in0.0 mm 0.28 in7.1 mm
10:28 PM 46.4°F8.0°C 45.3°F7.4°C 96% 1.0 mph ESE1.6 kmh ESE -- 30.20 in1022.7 mb 0.01 in0.3 mm 0.00 in0.0 mm 0.28 in7.1 mm
10:33 PM 46.2°F7.9°C 45.1°F7.3°C 96% 2.0 mph E3.2 kmh E -- 30.19 in1022.4 mb 0.01 in0.3 mm 0.00 in0.0 mm 0.28 in7.1 mm
10:38 PM 46.0°F7.8°C 44.9°F7.2°C 96% 1.0 mph SE1.6 kmh SE -- 30.20 in1022.7 mb 0.00 in0.0 mm 0.00 in0.0 mm 0.28 in7.1 mm
10:43 PM 46.1°F7.8°C 44.9°F7.2°C 96% Calm Calm -- 30.20 in1022.7 mb 0.00 in0.0 mm 0.00 in0.0 mm 0.28 in7.1 mm
10:48 PM 46.0°F7.8°C 44.9°F7.2°C 96% 1.0 mph S1.6 kmh S -- 30.20 in1022.7 mb 0.00 in0.0 mm 0.00 in0.0 mm 0.28 in7.1 mm
10:53 PM 46.0°F7.8°C 44.9°F7.2°C 96% 1.0 mph SW1.6 kmh SW -- 30.21 in1023.0 mb 0.00 in0.0 mm 0.00 in0.0 mm 0.28 in7.1 mm
10:58 PM 46.0°F7.8°C 44.9°F7.2°C 96% 2.0 mph N3.2 kmh N -- 30.22 in1023.4 mb 0.01 in0.3 mm 0.12 in3.0 mm 0.29 in7.4 mm
11:03 PM 45.9°F7.7°C 44.8°F7.1°C 96% 2.0 mph E3.2 kmh E -- 30.21 in1023.0 mb 0.01 in0.3 mm 0.00 in0.0 mm 0.29 in7.4 mm
11:08 PM 45.8°F7.7°C 44.8°F7.1°C 96% 2.0 mph NNE3.2 kmh NNE -- 30.21 in1023.0 mb 0.01 in0.3 mm 0.00 in0.0 mm 0.29 in7.4 mm
11:13 PM 45.9°F7.7°C 45.0°F7.2°C 97% 1.0 mph NE1.6 kmh NE -- 30.21 in1023.0 mb 0.01 in0.3 mm 0.00 in0.0 mm 0.29 in7.4 mm
11:18 PM 45.7°F7.6°C 44.9°F7.2°C 97% 2.0 mph E3.2 kmh E -- 30.21 in1023.0 mb 0.01 in0.3 mm 0.00 in0.0 mm 0.29 in7.4 mm
11:23 PM 45.8°F7.7°C 45.0°F7.2°C 97% Calm Calm -- 30.21 in1023.0 mb 0.01 in0.3 mm 0.00 in0.0 mm 0.29 in7.4 mm
11:28 PM 45.8°F7.7°C 45.0°F7.2°C 97% 2.0 mph NE3.2 kmh NE -- 30.21 in1023.0 mb 0.01 in0.3 mm 0.00 in0.0 mm 0.29 in7.4 mm
11:33 PM 45.7°F7.6°C 44.9°F7.2°C 97% 2.0 mph NNW3.2 kmh NNW -- 30.22 in1023.4 mb 0.01 in0.3 mm 0.00 in0.0 mm 0.29 in7.4 mm
11:38 PM 45.7°F7.6°C 44.9°F7.2°C 97% 2.0 mph N3.2 kmh N -- 30.23 in1023.7 mb 0.01 in0.3 mm 0.00 in0.0 mm 0.29 in7.4 mm
11:43 PM 45.7°F7.6°C 44.9°F7.2°C 97% 3.0 mph SE4.8 kmh SE -- 30.23 in1023.7 mb 0.02 in0.5 mm 0.12 in3.0 mm 0.30 in7.6 mm
11:48 PM 45.6°F7.6°C 44.9°F7.2°C 97% 2.0 mph NNW3.2 kmh NNW -- 30.23 in1023.7 mb 0.01 in0.3 mm 0.00 in0.0 mm 0.30 in7.6 mm
11:53 PM 45.3°F7.4°C 44.5°F6.9°C 97% 5.0 mph W8.0 kmh W -- 30.23 in1023.7 mb 0.02 in0.5 mm 0.12 in3.0 mm 0.29 in7.4 mm
11:58 PM 44.9°F7.2°C 43.9°F6.6°C 96% 5.0 mph NNE8.0 kmh NNE -- 30.24 in1024.0 mb 0.03 in0.8 mm 0.12 in3.0 mm 0.01 in0.3 mm